sensor_id;sensor_type;location;lat;lon;timestamp;temperature;humidity
67722;SHT31;58309;45.292;11.820;2023-05-10T00:00:21;16.57;82.21
67722;SHT31;58309;45.292;11.820;2023-05-10T00:02:47;16.50;81.06
67722;SHT31;58309;45.292;11.820;2023-05-10T00:05:13;16.51;81.32
67722;SHT31;58309;45.292;11.820;2023-05-10T00:07:39;16.51;81.36
67722;SHT31;58309;45.292;11.820;2023-05-10T00:10:04;16.53;81.69
67722;SHT31;58309;45.292;11.820;2023-05-10T00:12:30;16.51;81.14
67722;SHT31;58309;45.292;11.820;2023-05-10T00:14:56;16.37;80.36
67722;SHT31;58309;45.292;11.820;2023-05-10T00:17:21;16.35;81.22
67722;SHT31;58309;45.292;11.820;2023-05-10T00:19:47;16.30;80.69
67722;SHT31;58309;45.292;11.820;2023-05-10T00:22:12;16.27;80.15
67722;SHT31;58309;45.292;11.820;2023-05-10T00:24:38;16.23;80.45
67722;SHT31;58309;45.292;11.820;2023-05-10T00:27:03;16.20;79.20
67722;SHT31;58309;45.292;11.820;2023-05-10T00:29:29;16.16;79.33
67722;SHT31;58309;45.292;11.820;2023-05-10T00:31:55;16.14;79.59
67722;SHT31;58309;45.292;11.820;2023-05-10T00:34:21;16.10;80.24
67722;SHT31;58309;45.292;11.820;2023-05-10T00:36:47;16.02;80.08
67722;SHT31;58309;45.292;11.820;2023-05-10T00:39:14;15.90;81.03
67722;SHT31;58309;45.292;11.820;2023-05-10T00:41:40;15.81;82.54
67722;SHT31;58309;45.292;11.820;2023-05-10T00:44:05;15.73;83.17
67722;SHT31;58309;45.292;11.820;2023-05-10T00:46:31;15.66;82.65
67722;SHT31;58309;45.292;11.820;2023-05-10T00:48:57;15.62;84.07
67722;SHT31;58309;45.292;11.820;2023-05-10T00:51:23;15.56;84.14
67722;SHT31;58309;45.292;11.820;2023-05-10T00:53:49;15.53;84.19
67722;SHT31;58309;45.292;11.820;2023-05-10T00:56:16;15.48;84.53
67722;SHT31;58309;45.292;11.820;2023-05-10T00:58:42;15.44;84.44
67722;SHT31;58309;45.292;11.820;2023-05-10T01:01:08;15.36;83.31
67722;SHT31;58309;45.292;11.820;2023-05-10T01:03:35;15.34;83.22
67722;SHT31;58309;45.292;11.820;2023-05-10T01:06:01;15.31;83.02
67722;SHT31;58309;45.292;11.820;2023-05-10T01:08:27;15.24;82.90
67722;SHT31;58309;45.292;11.820;2023-05-10T01:10:53;15.17;83.45
67722;SHT31;58309;45.292;11.820;2023-05-10T01:13:37;15.10;83.20
67722;SHT31;58309;45.292;11.820;2023-05-10T01:16:03;15.03;84.62
67722;SHT31;58309;45.292;11.820;2023-05-10T01:18:31;14.93;84.79
67722;SHT31;58309;45.292;11.820;2023-05-10T01:35:51;14.52;83.38
67722;SHT31;58309;45.292;11.820;2023-05-10T01:38:31;14.49;83.81
67722;SHT31;58309;45.292;11.820;2023-05-10T01:41:08;14.46;83.88
67722;SHT31;58309;45.292;11.820;2023-05-10T01:43:57;14.40;85.20
67722;SHT31;58309;45.292;11.820;2023-05-10T01:46:35;14.33;84.79
67722;SHT31;58309;45.292;11.820;2023-05-10T01:49:09;14.25;86.06
67722;SHT31;58309;45.292;11.820;2023-05-10T01:51:45;14.23;85.94
67722;SHT31;58309;45.292;11.820;2023-05-10T01:54:13;14.19;85.54
67722;SHT31;58309;45.292;11.820;2023-05-10T01:56:39;14.16;85.11
67722;SHT31;58309;45.292;11.820;2023-05-10T01:59:11;14.16;85.98
67722;SHT31;58309;45.292;11.820;2023-05-10T02:01:39;14.13;84.76
67722;SHT31;58309;45.292;11.820;2023-05-10T02:04:07;14.12;84.52
67722;SHT31;58309;45.292;11.820;2023-05-10T02:06:34;14.13;84.19
67722;SHT31;58309;45.292;11.820;2023-05-10T02:09:01;14.12;84.73
67722;SHT31;58309;45.292;11.820;2023-05-10T02:11:29;14.11;83.39
67722;SHT31;58309;45.292;11.820;2023-05-10T02:13:56;14.09;83.95
67722;SHT31;58309;45.292;11.820;2023-05-10T02:16:24;14.08;83.14
67722;SHT31;58309;45.292;11.820;2023-05-10T02:18:53;14.09;82.19
67722;SHT31;58309;45.292;11.820;2023-05-10T02:21:20;14.11;81.28
67722;SHT31;58309;45.292;11.820;2023-05-10T02:23:48;14.11;82.08
67722;SHT31;58309;45.292;11.820;2023-05-10T02:26:15;14.12;80.47
67722;SHT31;58309;45.292;11.820;2023-05-10T02:28:43;14.13;81.08
67722;SHT31;58309;45.292;11.820;2023-05-10T02:31:09;14.11;81.52
67722;SHT31;58309;45.292;11.820;2023-05-10T02:33:38;14.12;82.81
67722;SHT31;58309;45.292;11.820;2023-05-10T02:36:07;14.09;82.53
67722;SHT31;58309;45.292;11.820;2023-05-10T02:38:34;14.09;81.26
67722;SHT31;58309;45.292;11.820;2023-05-10T02:41:01;14.13;82.42
67722;SHT31;58309;45.292;11.820;2023-05-10T02:43:28;14.12;80.76
67722;SHT31;58309;45.292;11.820;2023-05-10T02:45:55;14.09;80.44
67722;SHT31;58309;45.292;11.820;2023-05-10T02:48:21;14.18;80.42
67722;SHT31;58309;45.292;11.820;2023-05-10T02:50:47;14.19;82.02
67722;SHT31;58309;45.292;11.820;2023-05-10T02:53:20;14.16;81.00
67722;SHT31;58309;45.292;11.820;2023-05-10T02:55:51;14.12;81.71
67722;SHT31;58309;45.292;11.820;2023-05-10T02:58:17;14.08;81.45
67722;SHT31;58309;45.292;11.820;2023-05-10T03:00:46;14.04;81.53
67722;SHT31;58309;45.292;11.820;2023-05-10T03:03:12;14.01;82.23
67722;SHT31;58309;45.292;11.820;2023-05-10T03:05:39;13.97;82.37
67722;SHT31;58309;45.292;11.820;2023-05-10T03:08:04;13.89;82.71
67722;SHT31;58309;45.292;11.820;2023-05-10T03:10:32;13.82;82.58
67722;SHT31;58309;45.292;11.820;2023-05-10T03:13:32;13.78;84.02
67722;SHT31;58309;45.292;11.820;2023-05-10T03:16:08;13.67;83.43
67722;SHT31;58309;45.292;11.820;2023-05-10T03:18:50;13.58;84.50
67722;SHT31;58309;45.292;11.820;2023-05-10T03:21:22;13.53;84.36
67722;SHT31;58309;45.292;11.820;2023-05-10T03:26:29;13.41;84.73
67722;SHT31;58309;45.292;11.820;2023-05-10T03:28:55;13.39;85.71
67722;SHT31;58309;45.292;11.820;2023-05-10T03:31:21;13.34;86.94
67722;SHT31;58309;45.292;11.820;2023-05-10T03:33:49;13.27;87.67
67722;SHT31;58309;45.292;11.820;2023-05-10T03:36:14;13.22;87.95
67722;SHT31;58309;45.292;11.820;2023-05-10T03:38:40;13.22;87.39
67722;SHT31;58309;45.292;11.820;2023-05-10T03:41:05;13.14;88.69
67722;SHT31;58309;45.292;11.820;2023-05-10T03:43:31;13.14;88.58
67722;SHT31;58309;45.292;11.820;2023-05-10T03:45:58;13.10;88.62
67722;SHT31;58309;45.292;11.820;2023-05-10T03:48:24;13.09;89.45
67722;SHT31;58309;45.292;11.820;2023-05-10T03:50:50;13.06;90.17
67722;SHT31;58309;45.292;11.820;2023-05-10T03:53:15;12.99;89.66
67722;SHT31;58309;45.292;11.820;2023-05-10T03:55:41;12.95;90.48
67722;SHT31;58309;45.292;11.820;2023-05-10T03:58:10;12.92;90.53
67722;SHT31;58309;45.292;11.820;2023-05-10T04:00:37;12.89;90.59
67722;SHT31;58309;45.292;11.820;2023-05-10T04:03:02;12.86;91.43
67722;SHT31;58309;45.292;11.820;2023-05-10T04:05:28;12.82;91.87
67722;SHT31;58309;45.292;11.820;2023-05-10T04:07:54;12.78;92.23
67722;SHT31;58309;45.292;11.820;2023-05-10T04:10:19;12.82;92.70
67722;SHT31;58309;45.292;11.820;2023-05-10T04:12:45;12.79;93.68
67722;SHT31;58309;45.292;11.820;2023-05-10T04:15:11;12.79;93.83
67722;SHT31;58309;45.292;11.820;2023-05-10T04:17:36;12.81;94.24
67722;SHT31;58309;45.292;11.820;2023-05-10T04:20:03;12.81;94.60
67722;SHT31;58309;45.292;11.820;2023-05-10T04:22:28;12.82;95.67
67722;SHT31;58309;45.292;11.820;2023-05-10T04:24:54;12.81;95.35
67722;SHT31;58309;45.292;11.820;2023-05-10T04:27:20;12.78;95.51
67722;SHT31;58309;45.292;11.820;2023-05-10T04:29:45;12.73;95.11
67722;SHT31;58309;45.292;11.820;2023-05-10T04:32:11;12.68;95.19
67722;SHT31;58309;45.292;11.820;2023-05-10T04:34:37;12.68;95.40
67722;SHT31;58309;45.292;11.820;2023-05-10T04:37:05;12.66;95.45
67722;SHT31;58309;45.292;11.820;2023-05-10T04:39:31;12.69;96.17
67722;SHT31;58309;45.292;11.820;2023-05-10T04:41:57;12.63;95.76
67722;SHT31;58309;45.292;11.820;2023-05-10T04:44:23;12.62;95.89
67722;SHT31;58309;45.292;11.820;2023-05-10T04:46:48;12.56;94.70
67722;SHT31;58309;45.292;11.820;2023-05-10T04:49:13;12.52;94.22
67722;SHT31;58309;45.292;11.820;2023-05-10T04:51:39;12.52;95.63
67722;SHT31;58309;45.292;11.820;2023-05-10T04:54:05;12.51;95.54
67722;SHT31;58309;45.292;11.820;2023-05-10T04:56:30;12.51;95.80
67722;SHT31;58309;45.292;11.820;2023-05-10T04:58:56;12.52;96.11
67722;SHT31;58309;45.292;11.820;2023-05-10T05:01:21;12.52;95.57
67722;SHT31;58309;45.292;11.820;2023-05-10T05:03:48;12.48;95.14
67722;SHT31;58309;45.292;11.820;2023-05-10T05:06:14;12.46;95.55
67722;SHT31;58309;45.292;11.820;2023-05-10T05:08:39;12.44;95.89
67722;SHT31;58309;45.292;11.820;2023-05-10T05:11:05;12.38;95.39
67722;SHT31;58309;45.292;11.820;2023-05-10T05:13:30;12.32;95.42
67722;SHT31;58309;45.292;11.820;2023-05-10T05:15:59;12.31;95.88
67722;SHT31;58309;45.292;11.820;2023-05-10T05:18:26;12.30;95.93
67722;SHT31;58309;45.292;11.820;2023-05-10T05:20:52;12.30;96.31
67722;SHT31;58309;45.292;11.820;2023-05-10T05:23:17;12.35;96.76
67722;SHT31;58309;45.292;11.820;2023-05-10T05:25:44;12.42;96.71
67722;SHT31;58309;45.292;11.820;2023-05-10T05:28:09;12.49;96.93
67722;SHT31;58309;45.292;11.820;2023-05-10T05:30:36;12.54;96.86
67722;SHT31;58309;45.292;11.820;2023-05-10T05:33:02;12.55;96.80
67722;SHT31;58309;45.292;11.820;2023-05-10T05:35:27;12.61;96.89
67722;SHT31;58309;45.292;11.820;2023-05-10T05:37:53;12.63;97.02
67722;SHT31;58309;45.292;11.820;2023-05-10T05:40:20;12.66;96.56
67722;SHT31;58309;45.292;11.820;2023-05-10T05:42:45;12.68;96.84
67722;SHT31;58309;45.292;11.820;2023-05-10T05:45:11;12.66;96.72
67722;SHT31;58309;45.292;11.820;2023-05-10T05:47:39;12.66;97.03
67722;SHT31;58309;45.292;11.820;2023-05-10T05:50:05;12.71;97.29
67722;SHT31;58309;45.292;11.820;2023-05-10T05:52:31;12.69;96.53
67722;SHT31;58309;45.292;11.820;2023-05-10T05:54:56;12.71;96.50
67722;SHT31;58309;45.292;11.820;2023-05-10T05:57:22;12.68;96.75
67722;SHT31;58309;45.292;11.820;2023-05-10T05:59:48;12.69;97.03
67722;SHT31;58309;45.292;11.820;2023-05-10T06:02:13;12.73;96.95
67722;SHT31;58309;45.292;11.820;2023-05-10T06:04:39;12.79;96.96
67722;SHT31;58309;45.292;11.820;2023-05-10T06:07:05;12.79;96.79
67722;SHT31;58309;45.292;11.820;2023-05-10T06:09:31;12.79;96.14
67722;SHT31;58309;45.292;11.820;2023-05-10T06:11:56;12.81;96.56
67722;SHT31;58309;45.292;11.820;2023-05-10T06:14:23;12.81;96.60
67722;SHT31;58309;45.292;11.820;2023-05-10T06:16:48;12.76;96.41
67722;SHT31;58309;45.292;11.820;2023-05-10T06:19:14;12.78;96.63
67722;SHT31;58309;45.292;11.820;2023-05-10T06:21:39;12.78;96.97
67722;SHT31;58309;45.292;11.820;2023-05-10T06:24:05;12.76;97.18
67722;SHT31;58309;45.292;11.820;2023-05-10T06:26:32;12.72;96.96
67722;SHT31;58309;45.292;11.820;2023-05-10T06:28:58;12.69;97.07
67722;SHT31;58309;45.292;11.820;2023-05-10T06:31:24;12.65;96.98
67722;SHT31;58309;45.292;11.820;2023-05-10T06:33:49;12.62;96.49
67722;SHT31;58309;45.292;11.820;2023-05-10T06:36:15;12.55;97.18
67722;SHT31;58309;45.292;11.820;2023-05-10T06:38:40;12.56;97.27
67722;SHT31;58309;45.292;11.820;2023-05-10T06:41:06;12.54;97.58
67722;SHT31;58309;45.292;11.820;2023-05-10T06:43:31;12.55;97.65
67722;SHT31;58309;45.292;11.820;2023-05-10T06:45:57;12.48;97.12
67722;SHT31;58309;45.292;11.820;2023-05-10T06:48:23;12.44;97.02
67722;SHT31;58309;45.292;11.820;2023-05-10T06:50:49;12.46;97.40
67722;SHT31;58309;45.292;11.820;2023-05-10T06:53:14;12.51;97.55
67722;SHT31;58309;45.292;11.820;2023-05-10T06:55:40;12.54;97.59
67722;SHT31;58309;45.292;11.820;2023-05-10T06:58:06;12.55;97.37
67722;SHT31;58309;45.292;11.820;2023-05-10T07:00:32;12.45;97.12
67722;SHT31;58309;45.292;11.820;2023-05-10T07:02:57;12.42;97.22
67722;SHT31;58309;45.292;11.820;2023-05-10T07:05:23;12.45;97.45
67722;SHT31;58309;45.292;11.820;2023-05-10T07:07:49;12.46;97.58
67722;SHT31;58309;45.292;11.820;2023-05-10T07:10:15;12.44;97.41
67722;SHT31;58309;45.292;11.820;2023-05-10T07:12:40;12.44;97.28
67722;SHT31;58309;45.292;11.820;2023-05-10T07:15:06;12.42;97.72
67722;SHT31;58309;45.292;11.820;2023-05-10T07:17:32;12.45;98.11
67722;SHT31;58309;45.292;11.820;2023-05-10T07:19:59;12.41;97.78
67722;SHT31;58309;45.292;11.820;2023-05-10T07:22:25;12.35;97.39
67722;SHT31;58309;45.292;11.820;2023-05-10T07:24:51;12.38;98.09
67722;SHT31;58309;45.292;11.820;2023-05-10T07:27:16;12.42;97.91
67722;SHT31;58309;45.292;11.820;2023-05-10T07:29:42;12.41;98.01
67722;SHT31;58309;45.292;11.820;2023-05-10T07:32:07;12.46;98.32
67722;SHT31;58309;45.292;11.820;2023-05-10T07:34:33;12.49;98.05
67722;SHT31;58309;45.292;11.820;2023-05-10T07:36:58;12.46;97.93
67722;SHT31;58309;45.292;11.820;2023-05-10T07:39:25;12.46;98.00
67722;SHT31;58309;45.292;11.820;2023-05-10T07:41:51;12.48;97.86
67722;SHT31;58309;45.292;11.820;2023-05-10T07:44:16;12.51;97.86
67722;SHT31;58309;45.292;11.820;2023-05-10T07:46:44;12.46;98.22
67722;SHT31;58309;45.292;11.820;2023-05-10T07:49:09;12.48;98.07
67722;SHT31;58309;45.292;11.820;2023-05-10T07:51:35;12.40;97.63
67722;SHT31;58309;45.292;11.820;2023-05-10T07:54:01;12.41;97.93
67722;SHT31;58309;45.292;11.820;2023-05-10T07:56:29;12.45;98.33
67722;SHT31;58309;45.292;11.820;2023-05-10T07:58:59;12.41;98.31
67722;SHT31;58309;45.292;11.820;2023-05-10T08:01:25;12.45;98.53
67722;SHT31;58309;45.292;11.820;2023-05-10T08:03:50;12.48;98.47
67722;SHT31;58309;45.292;11.820;2023-05-10T08:06:20;12.51;98.37
67722;SHT31;58309;45.292;11.820;2023-05-10T08:08:46;12.58;98.37
67722;SHT31;58309;45.292;11.820;2023-05-10T08:11:18;12.65;98.07
67722;SHT31;58309;45.292;11.820;2023-05-10T08:13:45;12.73;98.11
67722;SHT31;58309;45.292;11.820;2023-05-10T08:16:10;12.75;98.02
67722;SHT31;58309;45.292;11.820;2023-05-10T08:18:36;12.73;97.83
67722;SHT31;58309;45.292;11.820;2023-05-10T08:21:02;12.79;97.48
67722;SHT31;58309;45.292;11.820;2023-05-10T08:23:28;12.73;97.86
67722;SHT31;58309;45.292;11.820;2023-05-10T08:25:53;12.73;97.75
67722;SHT31;58309;45.292;11.820;2023-05-10T08:28:19;12.72;98.01
67722;SHT31;58309;45.292;11.820;2023-05-10T08:30:44;12.76;98.31
67722;SHT31;58309;45.292;11.820;2023-05-10T08:33:10;12.66;98.03
67722;SHT31;58309;45.292;11.820;2023-05-10T08:35:36;12.69;98.32
67722;SHT31;58309;45.292;11.820;2023-05-10T08:38:01;12.66;98.33
67722;SHT31;58309;45.292;11.820;2023-05-10T08:40:27;12.62;98.22
67722;SHT31;58309;45.292;11.820;2023-05-10T08:42:58;12.54;97.80
67722;SHT31;58309;45.292;11.820;2023-05-10T08:45:32;12.49;98.24
67722;SHT31;58309;45.292;11.820;2023-05-10T08:47:58;12.51;98.44
67722;SHT31;58309;45.292;11.820;2023-05-10T08:50:25;12.51;98.17
67722;SHT31;58309;45.292;11.820;2023-05-10T08:52:52;12.52;98.36
67722;SHT31;58309;45.292;11.820;2023-05-10T08:55:20;12.51;98.35
67722;SHT31;58309;45.292;11.820;2023-05-10T08:57:48;12.56;98.51
67722;SHT31;58309;45.292;11.820;2023-05-10T09:00:14;12.66;98.34
67722;SHT31;58309;45.292;11.820;2023-05-10T09:02:41;12.73;98.64
67722;SHT31;58309;45.292;11.820;2023-05-10T09:05:08;12.78;98.80
67722;SHT31;58309;45.292;11.820;2023-05-10T09:07:36;12.79;98.62
67722;SHT31;58309;45.292;11.820;2023-05-10T09:10:02;12.81;98.35
67722;SHT31;58309;45.292;11.820;2023-05-10T09:12:28;12.86;98.76
67722;SHT31;58309;45.292;11.820;2023-05-10T09:14:54;12.91;99.03
67722;SHT31;58309;45.292;11.820;2023-05-10T09:17:23;12.99;98.78
67722;SHT31;58309;45.292;11.820;2023-05-10T09:19:49;13.04;98.92
67722;SHT31;58309;45.292;11.820;2023-05-10T09:22:14;13.04;98.50
67722;SHT31;58309;45.292;11.820;2023-05-10T09:24:42;13.02;98.23
67722;SHT31;58309;45.292;11.820;2023-05-10T09:27:10;12.99;98.36
67722;SHT31;58309;45.292;11.820;2023-05-10T09:29:42;13.10;98.51
67722;SHT31;58309;45.292;11.820;2023-05-10T09:32:08;13.16;97.76
67722;SHT31;58309;45.292;11.820;2023-05-10T09:34:34;13.14;97.99
67722;SHT31;58309;45.292;11.820;2023-05-10T09:37:05;13.00;97.50
67722;SHT31;58309;45.292;11.820;2023-05-10T09:41:58;13.03;98.68
67722;SHT31;58309;45.292;11.820;2023-05-10T09:44:25;12.92;98.59
67722;SHT31;58309;45.292;11.820;2023-05-10T09:46:51;12.83;98.48
67722;SHT31;58309;45.292;11.820;2023-05-10T09:49:19;12.92;98.74
67722;SHT31;58309;45.292;11.820;2023-05-10T09:51:45;12.88;98.55
67722;SHT31;58309;45.292;11.820;2023-05-10T09:54:14;12.81;98.77
67722;SHT31;58309;45.292;11.820;2023-05-10T09:56:40;12.89;99.16
67722;SHT31;58309;45.292;11.820;2023-05-10T09:59:09;12.99;98.98
67722;SHT31;58309;45.292;11.820;2023-05-10T10:01:34;12.85;98.41
67722;SHT31;58309;45.292;11.820;2023-05-10T10:04:10;12.86;99.16
67722;SHT31;58309;45.292;11.820;2023-05-10T10:06:40;12.88;99.15
67722;SHT31;58309;45.292;11.820;2023-05-10T10:09:06;12.96;99.26
67722;SHT31;58309;45.292;11.820;2023-05-10T10:11:35;12.93;98.68
67722;SHT31;58309;45.292;11.820;2023-05-10T10:14:01;12.92;99.00
67722;SHT31;58309;45.292;11.820;2023-05-10T10:16:29;12.91;98.74
67722;SHT31;58309;45.292;11.820;2023-05-10T10:18:55;12.76;98.28
67722;SHT31;58309;45.292;11.820;2023-05-10T10:21:21;12.91;99.06
67722;SHT31;58309;45.292;11.820;2023-05-10T10:23:47;12.92;99.02
67722;SHT31;58309;45.292;11.820;2023-05-10T10:26:14;12.96;99.01
67722;SHT31;58309;45.292;11.820;2023-05-10T10:28:49;13.00;99.04
67722;SHT31;58309;45.292;11.820;2023-05-10T10:31:47;13.03;98.84
67722;SHT31;58309;45.292;11.820;2023-05-10T10:34:25;13.04;98.48
67722;SHT31;58309;45.292;11.820;2023-05-10T10:36:52;13.03;98.24
67722;SHT31;58309;45.292;11.820;2023-05-10T10:39:20;13.06;98.66
67722;SHT31;58309;45.292;11.820;2023-05-10T10:41:53;13.04;98.78
67722;SHT31;58309;45.292;11.820;2023-05-10T11:00:35;13.43;98.19
67722;SHT31;58309;45.292;11.820;2023-05-10T11:05:40;13.39;98.30
67722;SHT31;58309;45.292;11.820;2023-05-10T11:08:12;13.43;98.60
67722;SHT31;58309;45.292;11.820;2023-05-10T11:10:38;13.50;98.38
67722;SHT31;58309;45.292;11.820;2023-05-10T11:13:06;13.51;98.13
67722;SHT31;58309;45.292;11.820;2023-05-10T11:15:48;13.58;97.68
67722;SHT31;58309;45.292;11.820;2023-05-10T11:18:20;13.58;98.42
67722;SHT31;58309;45.292;11.820;2023-05-10T11:21:01;13.57;98.10
67722;SHT31;58309;45.292;11.820;2023-05-10T11:26:12;13.53;98.54
67722;SHT31;58309;45.292;11.820;2023-05-10T11:28:45;13.53;99.21
67722;SHT31;58309;45.292;11.820;2023-05-10T11:31:15;13.50;98.84
67722;SHT31;58309;45.292;11.820;2023-05-10T11:33:46;13.53;98.99
67722;SHT31;58309;45.292;11.820;2023-05-10T11:36:14;13.46;98.82
67722;SHT31;58309;45.292;11.820;2023-05-10T11:38:40;13.44;98.85
67722;SHT31;58309;45.292;11.820;2023-05-10T11:41:08;13.36;98.91
67722;SHT31;58309;45.292;11.820;2023-05-10T11:43:34;13.36;98.88
67722;SHT31;58309;45.292;11.820;2023-05-10T11:46:00;13.26;98.88
67722;SHT31;58309;45.292;11.820;2023-05-10T11:48:25;13.24;99.19
67722;SHT31;58309;45.292;11.820;2023-05-10T11:50:51;13.28;99.33
67722;SHT31;58309;45.292;11.820;2023-05-10T11:53:19;13.12;98.83
67722;SHT31;58309;45.292;11.820;2023-05-10T11:55:45;13.10;98.96
67722;SHT31;58309;45.292;11.820;2023-05-10T11:58:11;13.17;99.20
67722;SHT31;58309;45.292;11.820;2023-05-10T12:00:36;13.23;99.46
67722;SHT31;58309;45.292;11.820;2023-05-10T12:03:03;13.27;99.32
67722;SHT31;58309;45.292;11.820;2023-05-10T12:05:32;13.30;99.50
67722;SHT31;58309;45.292;11.820;2023-05-10T12:08:14;13.26;99.52
67722;SHT31;58309;45.292;11.820;2023-05-10T12:10:40;13.10;98.92
67722;SHT31;58309;45.292;11.820;2023-05-10T12:13:10;13.10;99.21
67722;SHT31;58309;45.292;11.820;2023-05-10T12:15:36;13.10;99.58
67722;SHT31;58309;45.292;11.820;2023-05-10T12:18:02;13.19;99.75
67722;SHT31;58309;45.292;11.820;2023-05-10T12:20:28;13.09;99.40
67722;SHT31;58309;45.292;11.820;2023-05-10T12:22:56;13.06;99.72
67722;SHT31;58309;45.292;11.820;2023-05-10T12:25:22;13.04;99.59
67722;SHT31;58309;45.292;11.820;2023-05-10T12:30:26;13.00;99.66
67722;SHT31;58309;45.292;11.820;2023-05-10T12:32:53;13.02;99.66
67722;SHT31;58309;45.292;11.820;2023-05-10T12:35:19;13.13;99.65
67722;SHT31;58309;45.292;11.820;2023-05-10T12:37:50;13.12;99.46
67722;SHT31;58309;45.292;11.820;2023-05-10T12:40:16;13.13;99.79
67722;SHT31;58309;45.292;11.820;2023-05-10T12:42:42;13.04;99.50
67722;SHT31;58309;45.292;11.820;2023-05-10T12:45:10;13.03;99.86
67722;SHT31;58309;45.292;11.820;2023-05-10T12:47:37;13.06;99.79
67722;SHT31;58309;45.292;11.820;2023-05-10T12:50:03;13.07;99.65
67722;SHT31;58309;45.292;11.820;2023-05-10T12:52:29;13.19;99.95
67722;SHT31;58309;45.292;11.820;2023-05-10T12:54:56;13.10;99.26
67722;SHT31;58309;45.292;11.820;2023-05-10T12:57:22;13.14;99.91
67722;SHT31;58309;45.292;11.820;2023-05-10T12:59:48;13.20;99.75
67722;SHT31;58309;45.292;11.820;2023-05-10T13:02:15;13.26;99.92
67722;SHT31;58309;45.292;11.820;2023-05-10T13:04:43;13.26;99.70
67722;SHT31;58309;45.292;11.820;2023-05-10T13:07:09;13.22;99.83
67722;SHT31;58309;45.292;11.820;2023-05-10T13:09:34;13.22;99.99
67722;SHT31;58309;45.292;11.820;2023-05-10T13:12:00;13.24;99.99
67722;SHT31;58309;45.292;11.820;2023-05-10T13:14:26;13.26;99.99
67722;SHT31;58309;45.292;11.820;2023-05-10T13:16:52;13.26;99.99
67722;SHT31;58309;45.292;11.820;2023-05-10T13:19:18;13.23;99.99
67722;SHT31;58309;45.292;11.820;2023-05-10T13:21:43;13.22;99.99
67722;SHT31;58309;45.292;11.820;2023-05-10T13:24:12;13.22;99.99
67722;SHT31;58309;45.292;11.820;2023-05-10T13:26:42;13.19;99.99
67722;SHT31;58309;45.292;11.820;2023-05-10T13:29:08;13.22;99.99
67722;SHT31;58309;45.292;11.820;2023-05-10T13:31:34;13.20;99.99
67722;SHT31;58309;45.292;11.820;2023-05-10T13:34:00;13.23;99.99
67722;SHT31;58309;45.292;11.820;2023-05-10T13:36:27;13.24;99.99
67722;SHT31;58309;45.292;11.820;2023-05-10T13:38:52;13.20;99.99
67722;SHT31;58309;45.292;11.820;2023-05-10T13:41:18;13.20;99.99
67722;SHT31;58309;45.292;11.820;2023-05-10T13:43:44;13.16;99.96
67722;SHT31;58309;45.292;11.820;2023-05-10T13:46:09;13.16;99.99
67722;SHT31;58309;45.292;11.820;2023-05-10T13:48:35;13.16;99.99
67722;SHT31;58309;45.292;11.820;2023-05-10T13:51:02;13.22;99.99
67722;SHT31;58309;45.292;11.820;2023-05-10T13:53:28;13.24;99.99
67722;SHT31;58309;45.292;11.820;2023-05-10T13:59:01;13.07;99.71
67722;SHT31;58309;45.292;11.820;2023-05-10T14:01:27;13.02;99.53
67722;SHT31;58309;45.292;11.820;2023-05-10T14:03:52;13.03;99.81
67722;SHT31;58309;45.292;11.820;2023-05-10T14:06:18;13.03;99.99
67722;SHT31;58309;45.292;11.820;2023-05-10T14:08:44;13.00;99.99
67722;SHT31;58309;45.292;11.820;2023-05-10T14:11:09;13.04;99.99
67722;SHT31;58309;45.292;11.820;2023-05-10T14:13:35;13.00;99.99
67722;SHT31;58309;45.292;11.820;2023-05-10T14:16:01;12.97;99.99
67722;SHT31;58309;45.292;11.820;2023-05-10T14:18:27;13.04;99.99
67722;SHT31;58309;45.292;11.820;2023-05-10T14:20:53;13.04;99.99
67722;SHT31;58309;45.292;11.820;2023-05-10T14:23:18;13.10;99.99
67722;SHT31;58309;45.292;11.820;2023-05-10T14:25:52;13.14;99.99
67722;SHT31;58309;45.292;11.820;2023-05-10T14:28:18;13.13;99.99
67722;SHT31;58309;45.292;11.820;2023-05-10T14:30:44;13.12;99.99
67722;SHT31;58309;45.292;11.820;2023-05-10T14:33:10;13.10;99.99
67722;SHT31;58309;45.292;11.820;2023-05-10T14:35:35;13.12;99.99
67722;SHT31;58309;45.292;11.820;2023-05-10T14:38:04;13.10;99.99
67722;SHT31;58309;45.292;11.820;2023-05-10T14:40:30;13.10;99.99
67722;SHT31;58309;45.292;11.820;2023-05-10T14:42:56;13.17;99.99
67722;SHT31;58309;45.292;11.820;2023-05-10T14:45:22;13.09;99.99
67722;SHT31;58309;45.292;11.820;2023-05-10T14:47:49;13.10;99.99
67722;SHT31;58309;45.292;11.820;2023-05-10T14:50:15;13.09;99.99
67722;SHT31;58309;45.292;11.820;2023-05-10T14:56:03;13.10;99.99
67722;SHT31;58309;45.292;11.820;2023-05-10T14:58:29;13.06;99.99
67722;SHT31;58309;45.292;11.820;2023-05-10T15:00:55;13.04;99.99
67722;SHT31;58309;45.292;11.820;2023-05-10T15:03:22;13.00;99.99
67722;SHT31;58309;45.292;11.820;2023-05-10T15:05:47;12.96;99.99
67722;SHT31;58309;45.292;11.820;2023-05-10T15:08:14;12.97;99.99
67722;SHT31;58309;45.292;11.820;2023-05-10T15:10:40;12.97;99.99
67722;SHT31;58309;45.292;11.820;2023-05-10T15:13:05;12.92;99.99
67722;SHT31;58309;45.292;11.820;2023-05-10T15:15:31;12.93;99.99
67722;SHT31;58309;45.292;11.820;2023-05-10T15:17:57;12.91;99.99
67722;SHT31;58309;45.292;11.820;2023-05-10T15:20:22;12.89;99.99
67722;SHT31;58309;45.292;11.820;2023-05-10T15:22:48;12.89;99.99
67722;SHT31;58309;45.292;11.820;2023-05-10T15:25:13;12.96;99.99
67722;SHT31;58309;45.292;11.820;2023-05-10T15:27:41;12.89;99.99
67722;SHT31;58309;45.292;11.820;2023-05-10T15:30:09;12.91;99.99
67722;SHT31;58309;45.292;11.820;2023-05-10T15:32:34;12.85;99.99
67722;SHT31;58309;45.292;11.820;2023-05-10T15:35:00;12.86;99.99
67722;SHT31;58309;45.292;11.820;2023-05-10T15:37:26;12.86;99.99
67722;SHT31;58309;45.292;11.820;2023-05-10T15:39:51;12.82;99.99
67722;SHT31;58309;45.292;11.820;2023-05-10T15:42:17;12.82;99.99
67722;SHT31;58309;45.292;11.820;2023-05-10T15:44:42;12.81;99.99
67722;SHT31;58309;45.292;11.820;2023-05-10T15:47:09;12.78;99.99
67722;SHT31;58309;45.292;11.820;2023-05-10T15:49:35;12.81;99.99
67722;SHT31;58309;45.292;11.820;2023-05-10T15:52:01;12.73;99.99
67722;SHT31;58309;45.292;11.820;2023-05-10T15:54:26;12.75;99.99
67722;SHT31;58309;45.292;11.820;2023-05-10T15:56:52;12.78;99.99
67722;SHT31;58309;45.292;11.820;2023-05-10T15:59:19;12.85;99.99
67722;SHT31;58309;45.292;11.820;2023-05-10T16:01:44;12.89;99.99
67722;SHT31;58309;45.292;11.820;2023-05-10T16:04:10;12.82;99.99